createdAt,value
2019-06-23T00:01:36.211Z,101961.63
2019-06-23T00:04:02.203Z,101956.70
2019-06-23T00:06:28.065Z,101956.79
2019-06-23T00:08:54.013Z,101960.06
2019-06-23T00:11:19.917Z,101961.05
2019-06-23T00:13:45.806Z,101968.00
2019-06-23T00:16:11.816Z,101967.33
2019-06-23T00:18:37.689Z,101970.44
2019-06-23T00:21:03.663Z,101967.39
2019-06-23T00:23:29.515Z,101975.69
2019-06-23T00:25:55.411Z,101970.80
2019-06-23T00:28:21.282Z,101960.54
2019-06-23T00:30:49.092Z,101965.63
2019-06-23T00:33:14.924Z,101965.52
2019-06-23T00:35:40.834Z,101963.39
2019-06-23T00:38:06.919Z,101961.03
2019-06-23T00:40:32.852Z,101957.73
2019-06-23T00:42:58.721Z,101953.53
2019-06-23T00:45:24.628Z,101956.86
2019-06-23T00:47:50.516Z,101955.55
2019-06-23T00:50:16.584Z,101946.77
2019-06-23T00:52:42.441Z,101956.77
2019-06-23T00:55:08.988Z,101957.95
2019-06-23T00:57:34.879Z,101955.77
2019-06-23T01:00:00.869Z,101957.27
2019-06-23T01:02:28.638Z,101969.02
2019-06-23T01:04:54.516Z,101961.89
2019-06-23T01:07:20.430Z,101964.59
2019-06-23T01:10:01.501Z,101965.05
2019-06-23T01:12:14.142Z,101962.20
2019-06-23T01:14:40.032Z,101962.89
2019-06-23T01:17:05.919Z,101964.02
2019-06-23T01:19:31.779Z,101967.78
2019-06-23T01:21:57.664Z,101965.48
2019-06-23T01:24:23.521Z,101962.25
2019-06-23T01:26:49.527Z,101956.80
2019-06-23T01:29:15.373Z,101959.76
2019-06-23T01:31:41.262Z,101958.73
2019-06-23T01:34:07.131Z,101965.03
2019-06-23T01:36:33.117Z,101968.63
2019-06-23T01:38:59.007Z,101964.51
2019-06-23T01:41:24.876Z,101972.83
2019-06-23T01:43:50.741Z,101972.70
2019-06-23T01:46:16.635Z,101984.27
2019-06-23T01:48:42.497Z,101979.39
2019-06-23T01:51:08.381Z,101976.02
2019-06-23T01:53:34.243Z,101977.91
2019-06-23T01:56:00.136Z,101971.30
2019-06-23T01:58:26.003Z,101975.55
2019-06-23T02:00:51.899Z,101970.34
2019-06-23T02:03:17.740Z,101968.99
2019-06-23T02:05:43.623Z,101964.07
2019-06-23T02:08:09.483Z,101969.36
2019-06-23T02:10:35.367Z,101967.72
2019-06-23T02:13:01.225Z,101966.17
2019-06-23T02:15:27.113Z,101968.05
2019-06-23T02:17:52.997Z,101974.44
2019-06-23T02:20:20.861Z,101965.28
2019-06-23T02:22:48.660Z,101976.13
2019-06-23T02:25:14.533Z,101975.70
2019-06-23T02:27:40.425Z,101972.13
2019-06-23T02:30:06.392Z,101973.48
2019-06-23T02:32:32.279Z,101979.52
2019-06-23T02:35:04.366Z,101977.68
2019-06-23T02:37:25.965Z,101982.95
2019-06-23T02:39:51.833Z,101974.36
2019-06-23T02:42:17.721Z,101975.90
2019-06-23T02:44:43.590Z,101969.83
2019-06-23T02:47:14.171Z,101966.45
2019-06-23T02:49:44.769Z,101971.19
2019-06-23T02:52:15.547Z,101975.59
2019-06-23T02:54:49.144Z,101978.13
2019-06-23T02:57:33.737Z,101975.09
2019-06-23T02:59:59.660Z,101977.27
2019-06-23T03:02:25.551Z,101982.48
2019-06-23T03:04:51.420Z,101988.92
2019-06-23T03:07:17.300Z,101984.04
2019-06-23T03:09:43.155Z,101986.73
2019-06-23T03:12:09.042Z,101989.44
2019-06-23T03:14:34.929Z,101986.92
2019-06-23T03:17:00.813Z,101984.36
2019-06-23T03:19:26.677Z,101984.98
2019-06-23T03:21:52.568Z,101986.27
2019-06-23T03:24:18.496Z,101979.34
2019-06-23T03:26:44.408Z,101982.67
2019-06-23T03:29:10.311Z,101985.19
2019-06-23T03:31:36.569Z,101991.27
2019-06-23T03:34:02.475Z,101998.05
2019-06-23T03:36:29.321Z,101990.22
2019-06-23T03:38:55.209Z,101987.64
2019-06-23T03:41:22.169Z,101986.92
2019-06-23T03:43:48.954Z,101979.98
2019-06-23T03:46:14.818Z,101988.09
2019-06-23T03:48:40.716Z,101987.78
2019-06-23T03:51:06.567Z,101990.45
2019-06-23T03:53:32.449Z,101989.75
2019-06-23T03:55:58.316Z,101983.11
2019-06-23T03:58:24.204Z,101984.06
2019-06-23T04:00:50.065Z,101984.84
2019-06-23T04:03:15.952Z,101988.19
2019-06-23T04:05:51.120Z,101986.86
2019-06-23T04:08:09.615Z,101982.11
2019-06-23T04:10:35.476Z,101981.42
2019-06-23T04:13:01.366Z,101977.93
2019-06-23T04:15:27.251Z,101995.77
2019-06-23T04:17:53.144Z,101998.39
2019-06-23T04:20:22.830Z,101996.67
2019-06-23T04:22:48.890Z,102000.02
2019-06-23T04:25:14.783Z,101994.53
2019-06-23T04:27:40.740Z,101992.71
2019-06-23T04:30:06.828Z,101994.49
2019-06-23T04:32:32.691Z,101989.82
2019-06-23T04:34:58.585Z,101993.25
2019-06-23T04:37:24.541Z,101994.91
2019-06-23T04:39:50.428Z,101999.18
2019-06-23T04:42:16.289Z,101995.94
2019-06-23T04:44:42.182Z,101997.23
2019-06-23T04:47:08.065Z,101995.17
2019-06-23T04:49:33.932Z,101993.02
2019-06-23T04:51:59.801Z,101985.14
2019-06-23T04:54:25.685Z,101989.42
2019-06-23T04:56:51.549Z,101985.58
2019-06-23T04:59:17.439Z,101988.12
2019-06-23T05:01:43.298Z,101985.91
2019-06-23T05:04:09.188Z,101980.67
2019-06-23T05:06:35.049Z,101988.36
2019-06-23T05:09:00.938Z,101986.84
2019-06-23T05:11:26.799Z,101981.99
2019-06-23T05:13:52.755Z,101981.77
2019-06-23T05:16:18.685Z,101974.72
2019-06-23T05:18:44.581Z,101980.64
2019-06-23T05:21:10.443Z,101985.58
2019-06-23T05:23:36.297Z,101981.02
2019-06-23T05:26:02.191Z,101980.23
2019-06-23T05:28:28.044Z,101979.84
2019-06-23T05:30:53.931Z,101983.45
2019-06-23T05:33:19.836Z,101978.69
2019-06-23T05:35:45.688Z,101975.89
2019-06-23T05:38:11.551Z,101976.05
2019-06-23T05:40:37.441Z,101975.99
2019-06-23T05:43:03.368Z,101980.33
2019-06-23T05:45:29.255Z,101983.28
2019-06-23T05:47:55.097Z,101989.01
2019-06-23T05:50:20.987Z,101992.58
2019-06-23T05:52:46.843Z,101994.59
2019-06-23T05:55:12.735Z,101996.70
2019-06-23T05:57:38.600Z,101999.97
2019-06-23T06:00:09.300Z,102001.11
2019-06-23T06:02:35.149Z,102002.47
2019-06-23T06:05:01.047Z,101998.38
2019-06-23T06:07:26.914Z,101995.66
2019-06-23T06:09:52.800Z,102000.16
2019-06-23T06:12:18.677Z,102000.27
2019-06-23T06:14:44.694Z,101998.02
2019-06-23T06:17:10.605Z,101998.17
2019-06-23T06:19:36.424Z,101996.19
2019-06-23T06:22:02.698Z,101998.28
2019-06-23T06:24:28.864Z,101999.60
2019-06-23T06:26:54.855Z,102003.02
2019-06-23T06:29:21.202Z,102005.95
2019-06-23T06:31:47.095Z,102002.48
2019-06-23T06:34:13.122Z,102006.86
2019-06-23T06:36:39.015Z,102009.16
2019-06-23T06:39:05.582Z,102015.17
2019-06-23T06:41:31.885Z,102011.33
2019-06-23T06:43:57.731Z,102009.65
2019-06-23T06:46:23.744Z,102011.84
2019-06-23T06:48:49.687Z,102014.47
2019-06-23T06:51:15.570Z,102014.65
2019-06-23T06:53:41.848Z,102013.70
2019-06-23T06:56:07.724Z,102017.77
2019-06-23T06:58:34.090Z,102017.41
2019-06-23T07:01:00.024Z,102021.28
2019-06-23T07:03:26.036Z,102009.45
2019-06-23T07:05:51.927Z,102014.16
2019-06-23T07:08:17.784Z,102018.12
2019-06-23T07:10:44.313Z,102008.07
2019-06-23T07:13:10.222Z,102015.38
2019-06-23T07:15:36.111Z,102010.36
2019-06-23T07:18:02.009Z,102012.71
2019-06-23T07:20:27.852Z,102006.66
2019-06-23T07:22:53.745Z,102005.01
2019-06-23T07:25:19.605Z,102008.81
2019-06-23T07:27:45.494Z,102008.75
2019-06-23T07:30:32.785Z,102009.22
2019-06-23T07:32:58.672Z,102009.04
2019-06-23T07:35:24.534Z,102006.58
2019-06-23T07:37:50.430Z,102006.65
2019-06-23T07:40:16.288Z,102003.30
2019-06-23T07:42:42.200Z,101997.36
2019-06-23T07:45:08.144Z,101999.92
2019-06-23T07:47:34.032Z,102003.11
2019-06-23T07:49:59.893Z,101998.36
2019-06-23T07:52:25.789Z,102003.13
2019-06-23T07:54:51.662Z,102002.01
2019-06-23T07:57:17.541Z,102004.56
2019-06-23T07:59:43.402Z,102007.41
2019-06-23T08:02:09.292Z,102003.19
2019-06-23T08:04:35.152Z,102006.27
2019-06-23T08:07:01.042Z,102006.12
2019-06-23T08:09:26.903Z,102001.73
2019-06-23T08:11:52.765Z,102002.77
2019-06-23T08:14:18.681Z,101997.42
2019-06-23T08:16:44.593Z,102003.68
2019-06-23T08:19:10.473Z,101997.28
2019-06-23T08:21:36.873Z,102004.28
2019-06-23T08:24:03.435Z,102001.95
2019-06-23T08:26:29.886Z,102006.66
2019-06-23T08:28:55.776Z,102002.08
2019-06-23T08:31:21.634Z,102010.23
2019-06-23T08:33:47.521Z,102005.87
2019-06-23T08:36:13.381Z,102003.06
2019-06-23T08:38:39.281Z,101996.31
2019-06-23T08:41:05.166Z,101992.97
2019-06-23T08:43:31.057Z,101992.69
2019-06-23T08:45:56.919Z,101991.94
2019-06-23T08:48:22.865Z,101995.67
2019-06-23T08:50:48.720Z,101992.44
2019-06-23T08:53:14.621Z,101991.57
2019-06-23T08:55:40.485Z,101994.30
2019-06-23T08:58:06.413Z,101987.45
2019-06-23T09:00:32.382Z,101990.45
2019-06-23T09:02:58.272Z,101984.41
2019-06-23T09:05:24.133Z,101980.86
2019-06-23T09:07:49.991Z,101985.08
2019-06-23T09:10:15.881Z,101990.70
2019-06-23T09:12:41.746Z,101987.55
2019-06-23T09:15:07.862Z,101985.48
2019-06-23T09:17:33.745Z,101982.11
2019-06-23T09:19:59.642Z,101989.87
2019-06-23T09:22:25.493Z,101978.58
2019-06-23T09:24:51.393Z,101986.00
2019-06-23T09:27:17.315Z,101981.84
2019-06-23T09:29:43.231Z,101985.41
2019-06-23T09:32:09.058Z,101986.41
2019-06-23T09:34:34.946Z,101981.34
2019-06-23T09:37:00.824Z,101985.24
2019-06-23T09:39:26.832Z,101985.62
2019-06-23T09:41:52.702Z,101989.48
2019-06-23T09:44:18.583Z,101983.11
2019-06-23T09:46:44.448Z,101988.64
2019-06-23T09:49:10.332Z,101991.70
2019-06-23T09:51:36.223Z,101991.09
2019-06-23T09:54:02.091Z,101993.33
2019-06-23T09:56:27.957Z,101996.30
2019-06-23T09:58:53.849Z,101998.34
2019-06-23T10:01:19.720Z,102000.30
2019-06-23T10:03:45.581Z,102000.83
2019-06-23T10:06:11.589Z,101899.45
2019-06-23T10:08:37.454Z,102003.56
2019-06-23T10:11:03.347Z,102001.38
2019-06-23T10:13:29.207Z,101999.41
2019-06-23T10:15:55.116Z,101998.76
2019-06-23T10:18:20.982Z,101996.66
2019-06-23T10:20:46.885Z,102005.50
2019-06-23T10:23:12.737Z,101994.22
2019-06-23T10:25:38.635Z,102002.45
2019-06-23T10:28:04.510Z,102006.98
2019-06-23T10:30:30.424Z,102001.09
2019-06-23T10:32:56.270Z,101995.82
2019-06-23T10:35:22.199Z,101993.97
2019-06-23T10:37:48.070Z,101990.00
2019-06-23T10:40:14.262Z,101993.05
2019-06-23T10:42:40.125Z,101995.49
2019-06-23T10:45:07.713Z,101990.72
2019-06-23T10:47:34.180Z,101982.91
2019-06-23T10:50:00.731Z,101987.23
2019-06-23T10:52:29.919Z,101999.59
2019-06-23T10:54:54.988Z,101996.67
2019-06-23T10:57:20.850Z,101995.12
2019-06-23T10:59:47.399Z,101996.66
2019-06-23T11:02:13.849Z,101998.45
2019-06-23T11:04:40.162Z,101994.86
2019-06-23T11:07:06.065Z,101997.29
2019-06-23T11:09:35.877Z,101992.52
2019-06-23T11:12:00.371Z,101988.64
2019-06-23T11:14:28.841Z,102006.81
2019-06-23T11:16:55.302Z,102000.23
2019-06-23T11:19:22.249Z,102010.48
2019-06-23T11:21:48.733Z,102007.72
2019-06-23T11:24:15.343Z,102001.04
2019-06-23T11:26:44.480Z,102004.71
2019-06-23T11:29:10.999Z,101998.88
2019-06-23T11:31:37.345Z,101997.77
2019-06-23T11:34:04.296Z,102002.38
2019-06-23T11:36:30.952Z,101992.44
2019-06-23T11:38:57.513Z,101991.66
2019-06-23T11:41:24.424Z,101984.98
2019-06-23T11:43:50.946Z,101987.50
2019-06-23T11:46:17.327Z,101991.44
2019-06-23T11:48:44.023Z,101992.47
2019-06-23T11:51:11.055Z,101994.41
2019-06-23T11:53:37.627Z,101989.45
2019-06-23T11:56:05.965Z,101993.52
2019-06-23T11:58:32.413Z,101996.11
2019-06-23T12:00:58.952Z,101995.27
2019-06-23T12:03:25.431Z,101982.81
2019-06-23T12:05:52.226Z,101990.97
2019-06-23T12:08:18.891Z,101981.00
2019-06-23T12:10:45.451Z,101976.06
2019-06-23T12:13:12.260Z,101970.14
2019-06-23T12:15:38.955Z,101963.06
2019-06-23T12:18:05.693Z,101966.69
2019-06-23T12:20:31.895Z,101962.85
2019-06-23T12:22:57.991Z,101963.83
2019-06-23T12:25:24.638Z,101962.63
2019-06-23T12:27:50.620Z,101968.91
2019-06-23T12:30:16.483Z,101967.02
2019-06-23T12:32:42.461Z,101968.23
2019-06-23T12:35:08.421Z,101964.27
2019-06-23T12:37:34.351Z,101979.41
2019-06-23T12:40:00.190Z,101981.44
2019-06-23T12:42:26.078Z,101981.00
2019-06-23T12:44:51.938Z,101977.86
2019-06-23T12:47:17.842Z,101973.72
2019-06-23T12:49:43.691Z,101973.27
2019-06-23T12:52:09.680Z,101979.37
2019-06-23T12:54:35.542Z,101976.53
2019-06-23T12:57:01.428Z,101974.91
2019-06-23T12:59:27.291Z,101973.33
2019-06-23T13:01:53.285Z,101970.39
2019-06-23T13:04:19.144Z,101968.02
2019-06-23T13:06:45.004Z,101969.06
2019-06-23T13:09:10.889Z,101966.06
2019-06-23T13:11:36.756Z,101967.89
2019-06-23T13:14:03.369Z,101962.12
2019-06-23T13:16:29.334Z,101957.02
2019-06-23T13:18:55.241Z,101953.84
2019-06-23T13:21:21.448Z,101966.33
2019-06-23T13:23:47.370Z,101971.22
2019-06-23T13:26:13.220Z,101959.17
2019-06-23T13:28:39.628Z,101955.70
2019-06-23T13:31:05.611Z,101955.22
2019-06-23T13:33:31.496Z,101951.56
2019-06-23T13:35:57.405Z,101958.12
2019-06-23T13:38:23.267Z,101957.53
2019-06-23T13:40:56.248Z,101960.97
2019-06-23T13:43:16.933Z,101953.77
2019-06-23T13:45:42.791Z,101955.01
2019-06-23T13:48:08.677Z,101960.97
2019-06-23T13:50:34.670Z,101954.44
2019-06-23T13:53:00.557Z,101951.28
2019-06-23T13:55:26.416Z,101940.04
2019-06-23T13:57:52.314Z,101952.72
2019-06-23T14:00:18.681Z,101940.61
2019-06-23T14:02:44.543Z,101943.06
2019-06-23T14:05:10.639Z,101936.45
2019-06-23T14:07:36.501Z,101935.61
2019-06-23T14:10:04.688Z,101931.55
2019-06-23T14:12:30.551Z,101929.85
2019-06-23T14:14:56.478Z,101934.00
2019-06-23T14:17:22.355Z,101936.86
2019-06-23T14:19:50.366Z,101930.25
2019-06-23T14:22:16.497Z,101933.94
2019-06-23T14:24:42.384Z,101924.39
2019-06-23T14:27:08.442Z,101922.02
2019-06-23T14:29:34.328Z,101927.26
2019-06-23T14:32:00.188Z,101924.63
2019-06-23T14:34:26.090Z,101921.30
2019-06-23T14:36:51.936Z,101927.15
2019-06-23T14:39:17.820Z,101921.28
2019-06-23T14:41:43.689Z,101914.06
2019-06-23T14:44:09.611Z,101915.80
2019-06-23T14:46:35.463Z,101912.44
2019-06-23T14:49:01.333Z,101901.30
2019-06-23T14:51:27.229Z,101907.63
2019-06-23T14:53:53.092Z,101905.27
2019-06-23T14:56:18.982Z,101908.88
2019-06-23T14:58:44.840Z,101900.57
2019-06-23T15:01:13.475Z,101900.29
2019-06-23T15:03:38.485Z,101895.01
2019-06-23T15:06:04.381Z,101891.16
2019-06-23T15:08:30.258Z,101894.66
2019-06-23T15:10:56.125Z,101895.23
2019-06-23T15:13:21.985Z,101895.31
2019-06-23T15:15:47.902Z,101893.33
2019-06-23T15:18:13.772Z,101892.33
2019-06-23T15:20:43.456Z,101887.09
2019-06-23T15:23:07.426Z,101889.05
2019-06-23T15:25:33.308Z,101878.33
2019-06-23T15:27:59.179Z,101876.58
2019-06-23T15:30:25.065Z,101875.72
2019-06-23T15:32:51.180Z,101882.34
2019-06-23T15:35:17.514Z,101881.52
2019-06-23T15:37:43.506Z,101874.62
2019-06-23T15:40:09.793Z,101875.94
2019-06-23T15:42:36.196Z,101868.58
2019-06-23T15:45:05.654Z,101868.00
2019-06-23T15:47:31.542Z,101866.91
2019-06-23T15:49:57.401Z,101868.09
2019-06-23T15:52:23.284Z,101870.63
2019-06-23T15:54:49.159Z,101868.28
2019-06-23T15:57:15.039Z,101875.70
2019-06-23T15:59:40.909Z,101864.91
2019-06-23T16:02:06.801Z,101864.63
2019-06-23T16:04:32.659Z,101862.94
2019-06-23T16:06:58.556Z,101856.04
2019-06-23T16:09:24.424Z,101863.17
2019-06-23T16:11:50.346Z,101860.99
2019-06-23T16:14:16.338Z,101850.29
2019-06-23T16:16:42.224Z,101851.96
2019-06-23T16:19:08.089Z,101850.34
2019-06-23T16:21:33.982Z,101852.28
2019-06-23T16:23:59.835Z,101855.45
2019-06-23T16:26:25.729Z,101853.28
2019-06-23T16:28:51.586Z,101842.59
2019-06-23T16:31:17.476Z,101848.19
2019-06-23T16:33:43.344Z,101842.87
2019-06-23T16:36:09.348Z,101846.11
2019-06-23T16:38:35.219Z,101840.63
2019-06-23T16:41:01.084Z,101840.39
2019-06-23T16:43:27.889Z,101836.77
2019-06-23T16:45:53.824Z,101839.76
2019-06-23T16:48:19.711Z,101840.30
2019-06-23T16:50:45.585Z,101849.73
2019-06-23T16:53:11.474Z,101836.01
2019-06-23T16:55:37.336Z,101844.09
2019-06-23T16:58:03.371Z,101846.97
2019-06-23T17:00:29.227Z,101847.14
2019-06-23T17:02:55.120Z,101851.00
2019-06-23T17:05:20.991Z,101854.31
2019-06-23T17:07:46.878Z,101852.05
2019-06-23T17:10:13.038Z,101858.09
2019-06-23T17:12:49.049Z,101856.06
2019-06-23T17:15:07.119Z,101859.98
2019-06-23T17:17:33.105Z,101858.66
2019-06-23T17:19:58.968Z,101857.23
2019-06-23T17:22:25.309Z,101853.91
2019-06-23T17:24:51.299Z,101857.88
2019-06-23T17:27:17.459Z,101859.52
2019-06-23T17:29:43.741Z,101859.97
2019-06-23T17:32:09.813Z,101863.39
2019-06-23T17:34:36.143Z,101863.06
2019-06-23T17:37:02.158Z,101861.11
2019-06-23T17:39:28.272Z,101857.67
2019-06-23T17:41:54.440Z,101858.17
2019-06-23T17:44:20.673Z,101855.92
2019-06-23T17:46:46.811Z,101856.17
2019-06-23T17:49:13.069Z,101854.53
2019-06-23T17:51:39.228Z,101854.94
2019-06-23T17:54:05.680Z,101847.30
2019-06-23T17:56:31.554Z,101849.74
2019-06-23T17:58:57.843Z,101851.38
2019-06-23T18:01:23.692Z,101851.27
2019-06-23T18:03:49.569Z,101852.66
2019-06-23T18:06:15.447Z,101855.77
2019-06-23T18:08:41.331Z,101858.88
2019-06-23T18:11:07.195Z,101860.25
2019-06-23T18:13:33.089Z,101857.85
2019-06-23T18:15:58.969Z,101854.66
2019-06-23T18:18:25.000Z,101856.95
2019-06-23T18:20:54.289Z,101858.88
2019-06-23T18:23:20.806Z,101838.55
2019-06-23T18:25:46.740Z,101862.67
2019-06-23T18:28:12.900Z,101865.92
2019-06-23T18:30:39.315Z,101865.37
2019-06-23T18:33:05.509Z,101867.73
2019-06-23T18:35:31.365Z,101870.19
2019-06-23T18:37:57.229Z,101873.36
2019-06-23T18:40:23.175Z,101876.34
2019-06-23T18:42:52.430Z,101882.23
2019-06-23T18:45:19.165Z,101876.12
2019-06-23T18:47:45.229Z,101876.44
2019-06-23T18:50:11.871Z,101872.91
2019-06-23T18:52:37.733Z,101869.67
2019-06-23T18:55:05.553Z,101876.12
2019-06-23T18:57:31.462Z,101873.30
2019-06-23T18:59:57.507Z,101880.58
2019-06-23T19:02:25.724Z,101877.69
2019-06-23T19:04:51.984Z,101878.55
2019-06-23T19:07:17.869Z,101891.67
2019-06-23T19:09:44.140Z,101885.19
2019-06-23T19:12:10.427Z,101888.05
2019-06-23T19:14:36.677Z,101887.36
2019-06-23T19:17:04.816Z,101898.45
2019-06-23T19:19:30.710Z,101899.28
2019-06-23T19:21:56.557Z,101897.06
2019-06-23T19:24:22.440Z,101899.75
2019-06-23T19:26:48.812Z,101896.45
2019-06-23T19:29:14.855Z,101901.41
2019-06-23T19:31:40.723Z,101904.66
2019-06-23T19:34:06.637Z,101906.03
2019-06-23T19:36:32.500Z,101904.55
2019-06-23T19:38:58.358Z,101912.25
2019-06-23T19:41:24.244Z,101911.39
2019-06-23T19:43:50.101Z,101921.78
2019-06-23T19:46:15.985Z,101922.17
2019-06-23T19:48:41.910Z,101926.95
2019-06-23T19:51:07.833Z,101927.58
2019-06-23T19:53:33.726Z,101926.30
2019-06-23T19:55:59.607Z,101934.28
2019-06-23T19:58:25.523Z,101929.99
2019-06-23T20:00:51.446Z,101933.66
2019-06-23T20:03:17.311Z,101936.23
2019-06-23T20:05:43.305Z,101940.41
2019-06-23T20:08:09.209Z,101930.14
2019-06-23T20:10:35.096Z,101938.49
2019-06-23T20:13:00.949Z,101946.25
2019-06-23T20:15:28.315Z,101941.29
2019-06-23T20:17:54.481Z,101938.54
2019-06-23T20:20:20.462Z,101941.72
2019-06-23T20:22:46.322Z,101944.33
2019-06-23T20:25:12.191Z,101946.24
2019-06-23T20:27:38.078Z,101949.73
2019-06-23T20:30:07.543Z,101951.64
2019-06-23T20:32:33.500Z,101954.06
2019-06-23T20:34:59.352Z,101958.73
2019-06-23T20:37:25.266Z,101956.72
2019-06-23T20:39:51.194Z,101955.36
2019-06-23T20:42:17.146Z,101961.50
2019-06-23T20:44:43.153Z,101957.09
2019-06-23T20:47:09.050Z,101956.16
2019-06-23T20:49:34.905Z,101959.98
2019-06-23T20:52:00.789Z,101955.73
2019-06-23T20:54:26.646Z,101950.53
2019-06-23T20:56:52.532Z,101947.38
2019-06-23T20:59:18.398Z,101953.11
2019-06-23T21:01:44.341Z,101953.66
2019-06-23T21:04:10.252Z,101951.16
2019-06-23T21:06:36.112Z,101953.89
2019-06-23T21:09:03.595Z,101958.14
2019-06-23T21:11:29.462Z,101962.16
2019-06-23T21:13:55.351Z,101962.95
2019-06-23T21:16:21.242Z,101964.86
2019-06-23T21:18:47.133Z,101963.95
2019-06-23T21:21:13.002Z,101962.09
2019-06-23T21:23:38.890Z,101960.98
2019-06-23T21:26:04.749Z,101968.30
2019-06-23T21:28:30.642Z,101961.80
2019-06-23T21:30:56.505Z,101964.33
2019-06-23T21:33:22.401Z,101966.66
2019-06-23T21:35:48.273Z,101961.49
2019-06-23T21:38:14.161Z,101962.03
2019-06-23T21:40:40.025Z,101967.49
2019-06-23T21:43:05.917Z,101976.84
2019-06-23T21:45:31.809Z,101973.47
2019-06-23T21:47:57.690Z,101978.53
2019-06-23T21:50:23.670Z,101972.84
2019-06-23T21:52:49.559Z,101978.44
2019-06-23T21:55:15.446Z,101975.91
2019-06-23T21:57:41.414Z,101979.19
2019-06-23T22:00:28.933Z,101980.87
2019-06-23T22:02:54.970Z,101981.92
2019-06-23T22:05:23.660Z,101980.88
2019-06-23T22:07:49.531Z,101984.65
2019-06-23T22:10:15.423Z,101979.92
2019-06-23T22:12:41.290Z,101975.52
2019-06-23T22:15:07.299Z,101973.96
2019-06-23T22:17:33.178Z,101977.92
2019-06-23T22:19:59.044Z,101978.24
2019-06-23T22:22:24.914Z,101976.56
2019-06-23T22:24:50.813Z,101970.19
2019-06-23T22:27:16.668Z,101980.33
2019-06-23T22:29:42.556Z,101979.52
2019-06-23T22:32:08.423Z,101981.50
2019-06-23T22:34:34.440Z,101981.91
2019-06-23T22:37:00.284Z,101979.91
2019-06-23T22:39:26.169Z,101978.67
2019-06-23T22:41:52.032Z,101983.48
2019-06-23T22:44:17.898Z,101987.67
2019-06-23T22:46:43.780Z,101991.12
2019-06-23T22:49:09.638Z,101984.72
2019-06-23T22:51:35.525Z,101937.38
2019-06-23T22:54:01.416Z,101990.92
2019-06-23T22:56:27.280Z,101988.80
2019-06-23T22:58:53.141Z,101984.82
2019-06-23T23:01:19.022Z,101990.16
2019-06-23T23:03:44.884Z,101991.09
2019-06-23T23:06:10.763Z,101991.33
2019-06-23T23:08:36.617Z,101993.19
2019-06-23T23:11:02.719Z,101988.89
2019-06-23T23:13:28.551Z,101997.59
2019-06-23T23:16:03.538Z,101997.17
2019-06-23T23:18:22.226Z,102002.52
2019-06-23T23:20:48.165Z,102005.70
2019-06-23T23:23:14.017Z,102000.97
2019-06-23T23:25:39.902Z,102003.59
2019-06-23T23:28:05.951Z,102007.58
2019-06-23T23:30:31.838Z,102019.22
2019-06-23T23:32:57.693Z,102023.20
2019-06-23T23:35:23.676Z,102011.64
2019-06-23T23:37:49.540Z,102018.23
2019-06-23T23:40:15.398Z,102017.59
2019-06-23T23:42:41.320Z,102020.53
2019-06-23T23:45:07.772Z,102020.94
2019-06-23T23:47:33.680Z,102015.09
2019-06-23T23:49:59.534Z,102020.00
2019-06-23T23:52:25.412Z,102017.46
2019-06-23T23:54:51.282Z,102021.62
2019-06-23T23:57:17.160Z,102023.28
2019-06-23T23:59:43.070Z,102019.09
